sensor_id;sensor_type;location;lat;lon;timestamp;P1;durP1;ratioP1;P2;durP2;ratioP2
14100;SDS011;7127;49.372;8.166;2023-04-15T00:01:43;3.87;;;2.17;;
14100;SDS011;7127;49.372;8.166;2023-04-15T00:04:10;5.20;;;2.07;;
14100;SDS011;7127;49.372;8.166;2023-04-15T00:06:36;4.43;;;2.27;;
14100;SDS011;7127;49.372;8.166;2023-04-15T00:09:03;3.67;;;2.10;;
14100;SDS011;7127;49.372;8.166;2023-04-15T00:11:30;3.37;;;1.60;;
14100;SDS011;7127;49.372;8.166;2023-04-15T00:13:57;2.57;;;1.60;;
14100;SDS011;7127;49.372;8.166;2023-04-15T00:16:24;1.97;;;1.27;;
14100;SDS011;7127;49.372;8.166;2023-04-15T00:18:53;2.17;;;1.37;;
14100;SDS011;7127;49.372;8.166;2023-04-15T00:21:20;3.07;;;1.50;;
14100;SDS011;7127;49.372;8.166;2023-04-15T00:23:47;2.83;;;1.70;;
14100;SDS011;7127;49.372;8.166;2023-04-15T00:26:17;3.83;;;1.80;;
14100;SDS011;7127;49.372;8.166;2023-04-15T00:28:44;2.93;;;1.60;;
14100;SDS011;7127;49.372;8.166;2023-04-15T00:31:11;4.87;;;1.80;;
14100;SDS011;7127;49.372;8.166;2023-04-15T00:33:39;3.43;;;1.60;;
14100;SDS011;7127;49.372;8.166;2023-04-15T00:36:07;2.10;;;1.37;;
14100;SDS011;7127;49.372;8.166;2023-04-15T00:38:37;2.37;;;1.30;;
14100;SDS011;7127;49.372;8.166;2023-04-15T00:41:04;2.53;;;1.33;;
14100;SDS011;7127;49.372;8.166;2023-04-15T00:43:31;1.20;;;0.97;;
14100;SDS011;7127;49.372;8.166;2023-04-15T00:45:58;2.47;;;1.03;;
14100;SDS011;7127;49.372;8.166;2023-04-15T00:48:27;1.47;;;0.90;;
14100;SDS011;7127;49.372;8.166;2023-04-15T00:50:55;1.70;;;0.87;;
14100;SDS011;7127;49.372;8.166;2023-04-15T00:53:23;1.43;;;0.80;;
14100;SDS011;7127;49.372;8.166;2023-04-15T00:55:50;1.30;;;0.90;;
14100;SDS011;7127;49.372;8.166;2023-04-15T00:58:17;1.10;;;0.80;;
14100;SDS011;7127;49.372;8.166;2023-04-15T01:00:45;1.33;;;1.03;;
14100;SDS011;7127;49.372;8.166;2023-04-15T01:03:13;2.00;;;1.30;;
14100;SDS011;7127;49.372;8.166;2023-04-15T01:05:40;1.13;;;0.93;;
14100;SDS011;7127;49.372;8.166;2023-04-15T01:08:07;4.03;;;2.43;;
14100;SDS011;7127;49.372;8.166;2023-04-15T01:10:36;3.03;;;2.03;;
14100;SDS011;7127;49.372;8.166;2023-04-15T01:13:03;1.67;;;1.30;;
14100;SDS011;7127;49.372;8.166;2023-04-15T01:15:30;1.30;;;1.00;;
14100;SDS011;7127;49.372;8.166;2023-04-15T01:17:58;1.53;;;1.00;;
14100;SDS011;7127;49.372;8.166;2023-04-15T01:20:25;2.77;;;1.30;;
14100;SDS011;7127;49.372;8.166;2023-04-15T01:22:52;1.17;;;1.07;;
14100;SDS011;7127;49.372;8.166;2023-04-15T01:25:27;1.20;;;1.10;;
14100;SDS011;7127;49.372;8.166;2023-04-15T01:27:57;2.90;;;2.00;;
14100;SDS011;7127;49.372;8.166;2023-04-15T01:30:25;2.33;;;1.50;;
14100;SDS011;7127;49.372;8.166;2023-04-15T01:32:52;1.57;;;1.00;;
14100;SDS011;7127;49.372;8.166;2023-04-15T01:35:19;1.20;;;1.10;;
14100;SDS011;7127;49.372;8.166;2023-04-15T01:37:46;1.73;;;1.10;;
14100;SDS011;7127;49.372;8.166;2023-04-15T01:40:15;1.70;;;1.07;;
14100;SDS011;7127;49.372;8.166;2023-04-15T01:42:43;1.83;;;1.10;;
14100;SDS011;7127;49.372;8.166;2023-04-15T01:45:10;0.90;;;0.80;;
14100;SDS011;7127;49.372;8.166;2023-04-15T01:47:38;1.43;;;1.10;;
14100;SDS011;7127;49.372;8.166;2023-04-15T01:50:05;1.40;;;1.03;;
14100;SDS011;7127;49.372;8.166;2023-04-15T01:52:32;1.50;;;1.00;;
14100;SDS011;7127;49.372;8.166;2023-04-15T01:54:59;1.10;;;0.80;;
14100;SDS011;7127;49.372;8.166;2023-04-15T01:57:26;1.13;;;0.90;;
14100;SDS011;7127;49.372;8.166;2023-04-15T01:59:54;1.57;;;1.10;;
14100;SDS011;7127;49.372;8.166;2023-04-15T02:02:21;3.03;;;1.23;;
14100;SDS011;7127;49.372;8.166;2023-04-15T02:04:48;2.20;;;0.67;;
14100;SDS011;7127;49.372;8.166;2023-04-15T02:07:15;1.23;;;0.87;;
14100;SDS011;7127;49.372;8.166;2023-04-15T02:09:42;0.97;;;0.83;;
14100;SDS011;7127;49.372;8.166;2023-04-15T02:12:11;1.43;;;0.90;;
14100;SDS011;7127;49.372;8.166;2023-04-15T02:14:38;1.60;;;1.00;;
14100;SDS011;7127;49.372;8.166;2023-04-15T02:17:06;0.77;;;0.70;;
14100;SDS011;7127;49.372;8.166;2023-04-15T02:19:33;2.73;;;1.27;;
14100;SDS011;7127;49.372;8.166;2023-04-15T02:22:00;0.80;;;0.80;;
14100;SDS011;7127;49.372;8.166;2023-04-15T02:24:27;1.60;;;0.80;;
14100;SDS011;7127;49.372;8.166;2023-04-15T02:26:55;1.87;;;0.80;;
14100;SDS011;7127;49.372;8.166;2023-04-15T02:29:22;1.27;;;0.80;;
14100;SDS011;7127;49.372;8.166;2023-04-15T02:31:49;1.30;;;1.10;;
14100;SDS011;7127;49.372;8.166;2023-04-15T02:34:17;0.57;;;0.57;;
14100;SDS011;7127;49.372;8.166;2023-04-15T02:36:44;1.50;;;0.80;;
14100;SDS011;7127;49.372;8.166;2023-04-15T02:39:12;2.23;;;1.10;;
14100;SDS011;7127;49.372;8.166;2023-04-15T02:41:41;1.00;;;0.70;;
14100;SDS011;7127;49.372;8.166;2023-04-15T02:44:11;1.77;;;0.90;;
14100;SDS011;7127;49.372;8.166;2023-04-15T02:46:38;1.47;;;0.80;;
14100;SDS011;7127;49.372;8.166;2023-04-15T02:49:05;1.10;;;0.77;;
14100;SDS011;7127;49.372;8.166;2023-04-15T02:51:34;1.03;;;0.80;;
14100;SDS011;7127;49.372;8.166;2023-04-15T02:54:01;1.63;;;0.90;;
14100;SDS011;7127;49.372;8.166;2023-04-15T02:56:28;1.90;;;0.97;;
14100;SDS011;7127;49.372;8.166;2023-04-15T02:58:55;1.30;;;1.00;;
14100;SDS011;7127;49.372;8.166;2023-04-15T03:01:22;2.40;;;0.87;;
14100;SDS011;7127;49.372;8.166;2023-04-15T03:03:50;1.80;;;0.80;;
14100;SDS011;7127;49.372;8.166;2023-04-15T03:06:17;1.13;;;0.73;;
14100;SDS011;7127;49.372;8.166;2023-04-15T03:08:45;2.20;;;1.50;;
14100;SDS011;7127;49.372;8.166;2023-04-15T03:11:13;1.37;;;1.00;;
14100;SDS011;7127;49.372;8.166;2023-04-15T03:13:40;1.23;;;0.93;;
14100;SDS011;7127;49.372;8.166;2023-04-15T03:16:07;1.00;;;0.90;;
14100;SDS011;7127;49.372;8.166;2023-04-15T03:18:34;1.10;;;0.87;;
14100;SDS011;7127;49.372;8.166;2023-04-15T03:21:02;2.50;;;1.10;;
14100;SDS011;7127;49.372;8.166;2023-04-15T03:23:30;3.27;;;1.10;;
14100;SDS011;7127;49.372;8.166;2023-04-15T03:26:00;1.20;;;0.80;;
14100;SDS011;7127;49.372;8.166;2023-04-15T03:28:27;2.97;;;1.80;;
14100;SDS011;7127;49.372;8.166;2023-04-15T03:30:54;1.80;;;1.20;;
14100;SDS011;7127;49.372;8.166;2023-04-15T03:33:21;2.03;;;1.00;;
14100;SDS011;7127;49.372;8.166;2023-04-15T03:35:48;1.87;;;0.93;;
14100;SDS011;7127;49.372;8.166;2023-04-15T03:38:15;1.50;;;1.17;;
14100;SDS011;7127;49.372;8.166;2023-04-15T03:40:42;2.17;;;1.10;;
14100;SDS011;7127;49.372;8.166;2023-04-15T03:43:13;1.10;;;0.83;;
14100;SDS011;7127;49.372;8.166;2023-04-15T03:45:39;2.23;;;1.00;;
14100;SDS011;7127;49.372;8.166;2023-04-15T03:48:07;0.97;;;0.87;;
14100;SDS011;7127;49.372;8.166;2023-04-15T03:50:33;1.50;;;0.80;;
14100;SDS011;7127;49.372;8.166;2023-04-15T03:53:00;1.40;;;1.00;;
14100;SDS011;7127;49.372;8.166;2023-04-15T03:55:27;2.10;;;1.17;;
14100;SDS011;7127;49.372;8.166;2023-04-15T03:57:54;1.43;;;1.00;;
14100;SDS011;7127;49.372;8.166;2023-04-15T04:00:22;2.57;;;1.33;;
14100;SDS011;7127;49.372;8.166;2023-04-15T04:02:49;3.17;;;2.17;;
14100;SDS011;7127;49.372;8.166;2023-04-15T04:05:16;3.20;;;2.30;;
14100;SDS011;7127;49.372;8.166;2023-04-15T04:07:43;5.70;;;1.70;;
14100;SDS011;7127;49.372;8.166;2023-04-15T04:10:10;2.07;;;1.40;;
14100;SDS011;7127;49.372;8.166;2023-04-15T04:12:37;1.90;;;1.10;;
14100;SDS011;7127;49.372;8.166;2023-04-15T04:15:04;2.67;;;1.17;;
14100;SDS011;7127;49.372;8.166;2023-04-15T04:17:33;2.13;;;1.50;;
14100;SDS011;7127;49.372;8.166;2023-04-15T04:20:00;1.77;;;1.20;;
14100;SDS011;7127;49.372;8.166;2023-04-15T04:22:27;1.60;;;1.10;;
14100;SDS011;7127;49.372;8.166;2023-04-15T04:24:54;1.30;;;1.10;;
14100;SDS011;7127;49.372;8.166;2023-04-15T04:27:23;1.73;;;1.10;;
14100;SDS011;7127;49.372;8.166;2023-04-15T04:29:50;2.13;;;1.73;;
14100;SDS011;7127;49.372;8.166;2023-04-15T04:32:17;2.17;;;1.40;;
14100;SDS011;7127;49.372;8.166;2023-04-15T04:34:46;1.87;;;1.30;;
14100;SDS011;7127;49.372;8.166;2023-04-15T04:37:13;3.00;;;1.50;;
14100;SDS011;7127;49.372;8.166;2023-04-15T04:39:40;1.33;;;1.10;;
14100;SDS011;7127;49.372;8.166;2023-04-15T04:42:07;3.60;;;2.30;;
14100;SDS011;7127;49.372;8.166;2023-04-15T04:44:34;3.37;;;1.70;;
14100;SDS011;7127;49.372;8.166;2023-04-15T04:47:01;2.33;;;1.30;;
14100;SDS011;7127;49.372;8.166;2023-04-15T04:49:28;2.10;;;1.57;;
14100;SDS011;7127;49.372;8.166;2023-04-15T04:51:56;2.30;;;1.30;;
14100;SDS011;7127;49.372;8.166;2023-04-15T04:54:23;0.90;;;0.90;;
14100;SDS011;7127;49.372;8.166;2023-04-15T04:56:51;1.63;;;1.00;;
14100;SDS011;7127;49.372;8.166;2023-04-15T04:59:18;2.13;;;1.00;;
14100;SDS011;7127;49.372;8.166;2023-04-15T05:01:45;2.23;;;1.20;;
14100;SDS011;7127;49.372;8.166;2023-04-15T05:04:12;1.83;;;0.90;;
14100;SDS011;7127;49.372;8.166;2023-04-15T05:06:40;1.63;;;1.00;;
14100;SDS011;7127;49.372;8.166;2023-04-15T05:09:08;4.37;;;3.27;;
14100;SDS011;7127;49.372;8.166;2023-04-15T05:11:35;6.10;;;3.67;;
14100;SDS011;7127;49.372;8.166;2023-04-15T05:14:03;4.77;;;2.50;;
14100;SDS011;7127;49.372;8.166;2023-04-15T05:16:30;2.53;;;1.77;;
14100;SDS011;7127;49.372;8.166;2023-04-15T05:18:57;2.47;;;1.20;;
14100;SDS011;7127;49.372;8.166;2023-04-15T05:21:24;1.50;;;1.00;;
14100;SDS011;7127;49.372;8.166;2023-04-15T05:23:51;2.77;;;1.43;;
14100;SDS011;7127;49.372;8.166;2023-04-15T05:26:19;1.67;;;1.10;;
14100;SDS011;7127;49.372;8.166;2023-04-15T05:28:46;2.80;;;1.63;;
14100;SDS011;7127;49.372;8.166;2023-04-15T05:31:13;1.50;;;1.40;;
14100;SDS011;7127;49.372;8.166;2023-04-15T05:33:40;1.77;;;1.00;;
14100;SDS011;7127;49.372;8.166;2023-04-15T05:36:07;1.47;;;1.10;;
14100;SDS011;7127;49.372;8.166;2023-04-15T05:38:34;2.03;;;1.30;;
14100;SDS011;7127;49.372;8.166;2023-04-15T05:41:01;2.13;;;1.00;;
14100;SDS011;7127;49.372;8.166;2023-04-15T05:43:30;2.57;;;1.00;;
14100;SDS011;7127;49.372;8.166;2023-04-15T05:45:56;2.80;;;1.90;;
14100;SDS011;7127;49.372;8.166;2023-04-15T05:48:23;3.40;;;2.07;;
14100;SDS011;7127;49.372;8.166;2023-04-15T05:50:50;3.80;;;1.63;;
14100;SDS011;7127;49.372;8.166;2023-04-15T05:53:17;4.03;;;3.27;;
14100;SDS011;7127;49.372;8.166;2023-04-15T05:55:44;3.60;;;2.70;;
14100;SDS011;7127;49.372;8.166;2023-04-15T05:58:10;2.40;;;1.50;;
14100;SDS011;7127;49.372;8.166;2023-04-15T06:00:39;1.83;;;1.37;;
14100;SDS011;7127;49.372;8.166;2023-04-15T06:03:05;1.43;;;1.10;;
14100;SDS011;7127;49.372;8.166;2023-04-15T06:05:32;1.43;;;1.20;;
14100;SDS011;7127;49.372;8.166;2023-04-15T06:07:59;1.10;;;0.70;;
14100;SDS011;7127;49.372;8.166;2023-04-15T06:10:26;1.53;;;0.90;;
14100;SDS011;7127;49.372;8.166;2023-04-15T06:12:53;0.80;;;0.77;;
14100;SDS011;7127;49.372;8.166;2023-04-15T06:15:20;1.40;;;1.03;;
14100;SDS011;7127;49.372;8.166;2023-04-15T06:17:48;1.07;;;0.77;;
14100;SDS011;7127;49.372;8.166;2023-04-15T06:20:15;2.07;;;1.20;;
14100;SDS011;7127;49.372;8.166;2023-04-15T06:22:42;2.37;;;1.13;;
14100;SDS011;7127;49.372;8.166;2023-04-15T06:25:09;0.80;;;0.80;;
14100;SDS011;7127;49.372;8.166;2023-04-15T06:27:36;3.70;;;1.20;;
14100;SDS011;7127;49.372;8.166;2023-04-15T06:30:03;1.70;;;1.10;;
14100;SDS011;7127;49.372;8.166;2023-04-15T06:32:30;1.40;;;1.20;;
14100;SDS011;7127;49.372;8.166;2023-04-15T06:34:59;2.73;;;1.10;;
14100;SDS011;7127;49.372;8.166;2023-04-15T06:37:26;1.87;;;0.90;;
14100;SDS011;7127;49.372;8.166;2023-04-15T06:39:53;1.10;;;1.00;;
14100;SDS011;7127;49.372;8.166;2023-04-15T06:42:20;3.40;;;1.10;;
14100;SDS011;7127;49.372;8.166;2023-04-15T06:44:47;1.23;;;1.00;;
14100;SDS011;7127;49.372;8.166;2023-04-15T06:47:13;2.57;;;1.07;;
14100;SDS011;7127;49.372;8.166;2023-04-15T06:49:40;2.70;;;1.20;;
14100;SDS011;7127;49.372;8.166;2023-04-15T06:52:10;1.40;;;1.20;;
14100;SDS011;7127;49.372;8.166;2023-04-15T06:54:37;2.77;;;1.20;;
14100;SDS011;7127;49.372;8.166;2023-04-15T06:57:04;2.57;;;1.27;;
14100;SDS011;7127;49.372;8.166;2023-04-15T06:59:31;1.10;;;1.00;;
14100;SDS011;7127;49.372;8.166;2023-04-15T07:01:58;1.93;;;1.20;;
14100;SDS011;7127;49.372;8.166;2023-04-15T07:04:25;1.57;;;1.20;;
14100;SDS011;7127;49.372;8.166;2023-04-15T07:06:52;2.40;;;1.20;;
14100;SDS011;7127;49.372;8.166;2023-04-15T07:09:21;2.13;;;1.20;;
14100;SDS011;7127;49.372;8.166;2023-04-15T07:11:48;1.57;;;1.27;;
14100;SDS011;7127;49.372;8.166;2023-04-15T07:14:15;1.40;;;1.00;;
14100;SDS011;7127;49.372;8.166;2023-04-15T07:16:42;2.40;;;1.20;;
14100;SDS011;7127;49.372;8.166;2023-04-15T07:19:09;2.30;;;1.20;;
14100;SDS011;7127;49.372;8.166;2023-04-15T07:21:36;1.40;;;1.00;;
14100;SDS011;7127;49.372;8.166;2023-04-15T07:24:03;1.83;;;1.17;;
14100;SDS011;7127;49.372;8.166;2023-04-15T07:26:32;1.53;;;1.13;;
14100;SDS011;7127;49.372;8.166;2023-04-15T07:28:59;1.30;;;1.00;;
14100;SDS011;7127;49.372;8.166;2023-04-15T07:31:25;2.33;;;1.27;;
14100;SDS011;7127;49.372;8.166;2023-04-15T07:33:52;2.00;;;1.17;;
14100;SDS011;7127;49.372;8.166;2023-04-15T07:36:19;1.50;;;1.30;;
14100;SDS011;7127;49.372;8.166;2023-04-15T07:38:46;2.10;;;1.27;;
14100;SDS011;7127;49.372;8.166;2023-04-15T07:41:13;2.87;;;1.50;;
14100;SDS011;7127;49.372;8.166;2023-04-15T07:43:41;2.10;;;1.53;;
14100;SDS011;7127;49.372;8.166;2023-04-15T07:46:08;2.70;;;1.50;;
14100;SDS011;7127;49.372;8.166;2023-04-15T07:48:35;1.73;;;1.30;;
14100;SDS011;7127;49.372;8.166;2023-04-15T07:51:02;2.80;;;1.57;;
14100;SDS011;7127;49.372;8.166;2023-04-15T07:53:29;2.60;;;1.33;;
14100;SDS011;7127;49.372;8.166;2023-04-15T07:55:57;1.70;;;1.30;;
14100;SDS011;7127;49.372;8.166;2023-04-15T07:58:23;2.27;;;1.37;;
14100;SDS011;7127;49.372;8.166;2023-04-15T08:00:52;2.10;;;1.60;;
14100;SDS011;7127;49.372;8.166;2023-04-15T08:03:20;1.73;;;1.30;;
14100;SDS011;7127;49.372;8.166;2023-04-15T08:05:47;2.23;;;1.30;;
14100;SDS011;7127;49.372;8.166;2023-04-15T08:08:14;2.03;;;1.50;;
14100;SDS011;7127;49.372;8.166;2023-04-15T08:10:41;1.97;;;1.40;;
14100;SDS011;7127;49.372;8.166;2023-04-15T08:13:07;1.90;;;1.30;;
14100;SDS011;7127;49.372;8.166;2023-04-15T08:15:34;1.80;;;1.10;;
14100;SDS011;7127;49.372;8.166;2023-04-15T08:18:03;1.73;;;1.33;;
14100;SDS011;7127;49.372;8.166;2023-04-15T08:20:30;2.07;;;1.10;;
14100;SDS011;7127;49.372;8.166;2023-04-15T08:22:57;1.50;;;1.40;;
14100;SDS011;7127;49.372;8.166;2023-04-15T08:25:24;3.23;;;1.50;;
14100;SDS011;7127;49.372;8.166;2023-04-15T08:27:51;2.23;;;1.40;;
14100;SDS011;7127;49.372;8.166;2023-04-15T08:30:20;1.93;;;1.30;;
14100;SDS011;7127;49.372;8.166;2023-04-15T08:32:48;1.90;;;1.30;;
14100;SDS011;7127;49.372;8.166;2023-04-15T08:35:17;2.60;;;1.40;;
14100;SDS011;7127;49.372;8.166;2023-04-15T08:37:44;1.80;;;1.27;;
14100;SDS011;7127;49.372;8.166;2023-04-15T08:40:11;2.47;;;1.53;;
14100;SDS011;7127;49.372;8.166;2023-04-15T08:42:40;2.00;;;1.60;;
14100;SDS011;7127;49.372;8.166;2023-04-15T08:45:09;2.37;;;1.60;;
14100;SDS011;7127;49.372;8.166;2023-04-15T08:47:36;1.93;;;1.40;;
14100;SDS011;7127;49.372;8.166;2023-04-15T08:50:05;2.67;;;2.00;;
14100;SDS011;7127;49.372;8.166;2023-04-15T08:52:37;3.43;;;1.67;;
14100;SDS011;7127;49.372;8.166;2023-04-15T08:55:05;1.77;;;1.50;;
14100;SDS011;7127;49.372;8.166;2023-04-15T08:57:34;3.03;;;1.90;;
14100;SDS011;7127;49.372;8.166;2023-04-15T09:00:02;2.10;;;1.90;;
14100;SDS011;7127;49.372;8.166;2023-04-15T09:02:29;2.50;;;1.97;;
14100;SDS011;7127;49.372;8.166;2023-04-15T09:04:57;2.73;;;1.90;;
14100;SDS011;7127;49.372;8.166;2023-04-15T09:07:24;3.20;;;2.00;;
14100;SDS011;7127;49.372;8.166;2023-04-15T09:09:52;2.73;;;2.10;;
14100;SDS011;7127;49.372;8.166;2023-04-15T09:12:19;2.07;;;1.73;;
14100;SDS011;7127;49.372;8.166;2023-04-15T09:14:46;3.57;;;2.03;;
14100;SDS011;7127;49.372;8.166;2023-04-15T09:17:14;2.03;;;1.83;;
14100;SDS011;7127;49.372;8.166;2023-04-15T09:19:45;3.03;;;2.30;;
14100;SDS011;7127;49.372;8.166;2023-04-15T09:22:12;1.97;;;1.77;;
14100;SDS011;7127;49.372;8.166;2023-04-15T09:24:39;2.23;;;1.80;;
14100;SDS011;7127;49.372;8.166;2023-04-15T09:27:08;2.13;;;1.90;;
14100;SDS011;7127;49.372;8.166;2023-04-15T09:29:36;2.10;;;1.90;;
14100;SDS011;7127;49.372;8.166;2023-04-15T09:32:10;2.00;;;1.80;;
14100;SDS011;7127;49.372;8.166;2023-04-15T09:34:38;2.50;;;2.07;;
14100;SDS011;7127;49.372;8.166;2023-04-15T09:37:05;2.30;;;2.10;;
14100;SDS011;7127;49.372;8.166;2023-04-15T09:39:44;2.27;;;1.93;;
14100;SDS011;7127;49.372;8.166;2023-04-15T09:42:15;2.93;;;1.80;;
14100;SDS011;7127;49.372;8.166;2023-04-15T09:44:48;2.87;;;2.10;;
14100;SDS011;7127;49.372;8.166;2023-04-15T09:47:27;1.90;;;1.70;;
14100;SDS011;7127;49.372;8.166;2023-04-15T09:49:55;2.93;;;1.90;;
14100;SDS011;7127;49.372;8.166;2023-04-15T09:52:22;2.60;;;1.90;;
14100;SDS011;7127;49.372;8.166;2023-04-15T09:54:50;3.57;;;2.10;;
14100;SDS011;7127;49.372;8.166;2023-04-15T09:57:20;2.50;;;2.23;;
14100;SDS011;7127;49.372;8.166;2023-04-15T09:59:47;2.57;;;1.90;;
14100;SDS011;7127;49.372;8.166;2023-04-15T10:02:15;3.13;;;2.37;;
14100;SDS011;7127;49.372;8.166;2023-04-15T10:04:44;3.97;;;2.40;;
14100;SDS011;7127;49.372;8.166;2023-04-15T10:07:13;2.83;;;2.10;;
14100;SDS011;7127;49.372;8.166;2023-04-15T10:09:42;2.63;;;1.97;;
14100;SDS011;7127;49.372;8.166;2023-04-15T10:12:11;2.40;;;1.93;;
14100;SDS011;7127;49.372;8.166;2023-04-15T10:14:40;2.40;;;2.20;;
14100;SDS011;7127;49.372;8.166;2023-04-15T10:17:10;2.73;;;1.87;;
14100;SDS011;7127;49.372;8.166;2023-04-15T10:19:37;2.57;;;2.30;;
14100;SDS011;7127;49.372;8.166;2023-04-15T10:22:04;2.27;;;1.70;;
14100;SDS011;7127;49.372;8.166;2023-04-15T10:24:32;2.47;;;2.20;;
14100;SDS011;7127;49.372;8.166;2023-04-15T10:26:59;2.30;;;1.83;;
14100;SDS011;7127;49.372;8.166;2023-04-15T10:29:26;2.03;;;1.50;;
14100;SDS011;7127;49.372;8.166;2023-04-15T10:31:54;1.87;;;1.70;;
14100;SDS011;7127;49.372;8.166;2023-04-15T10:34:21;1.80;;;1.70;;
14100;SDS011;7127;49.372;8.166;2023-04-15T10:36:50;3.23;;;1.97;;
14100;SDS011;7127;49.372;8.166;2023-04-15T10:39:39;2.73;;;1.80;;
14100;SDS011;7127;49.372;8.166;2023-04-15T10:42:07;2.90;;;1.60;;
14100;SDS011;7127;49.372;8.166;2023-04-15T10:44:35;2.63;;;1.90;;
14100;SDS011;7127;49.372;8.166;2023-04-15T10:47:05;1.93;;;1.43;;
14100;SDS011;7127;49.372;8.166;2023-04-15T10:49:41;2.00;;;1.50;;
14100;SDS011;7127;49.372;8.166;2023-04-15T10:52:10;1.50;;;1.40;;
14100;SDS011;7127;49.372;8.166;2023-04-15T10:54:37;2.13;;;1.50;;
14100;SDS011;7127;49.372;8.166;2023-04-15T10:57:07;1.60;;;1.50;;
14100;SDS011;7127;49.372;8.166;2023-04-15T11:02:40;2.57;;;1.50;;
14100;SDS011;7127;49.372;8.166;2023-04-15T11:05:09;2.27;;;1.80;;
14100;SDS011;7127;49.372;8.166;2023-04-15T11:07:37;2.83;;;1.90;;
14100;SDS011;7127;49.372;8.166;2023-04-15T11:13:17;4.47;;;2.80;;
14100;SDS011;7127;49.372;8.166;2023-04-15T11:15:47;2.70;;;1.90;;
14100;SDS011;7127;49.372;8.166;2023-04-15T11:18:17;2.43;;;1.90;;
14100;SDS011;7127;49.372;8.166;2023-04-15T11:20:46;2.33;;;1.67;;
14100;SDS011;7127;49.372;8.166;2023-04-15T11:23:15;1.57;;;1.40;;
14100;SDS011;7127;49.372;8.166;2023-04-15T11:25:44;1.90;;;1.70;;
14100;SDS011;7127;49.372;8.166;2023-04-15T11:28:11;2.87;;;1.80;;
14100;SDS011;7127;49.372;8.166;2023-04-15T11:30:39;2.43;;;2.00;;
14100;SDS011;7127;49.372;8.166;2023-04-15T11:33:08;1.80;;;1.70;;
14100;SDS011;7127;49.372;8.166;2023-04-15T11:35:40;2.90;;;1.80;;
14100;SDS011;7127;49.372;8.166;2023-04-15T11:38:08;3.47;;;2.10;;
14100;SDS011;7127;49.372;8.166;2023-04-15T11:40:37;2.07;;;1.80;;
14100;SDS011;7127;49.372;8.166;2023-04-15T11:43:06;2.97;;;1.83;;
14100;SDS011;7127;49.372;8.166;2023-04-15T11:45:34;2.80;;;1.80;;
14100;SDS011;7127;49.372;8.166;2023-04-15T11:48:05;2.60;;;1.60;;
14100;SDS011;7127;49.372;8.166;2023-04-15T11:50:34;4.23;;;1.90;;
14100;SDS011;7127;49.372;8.166;2023-04-15T11:53:03;2.80;;;1.80;;
14100;SDS011;7127;49.372;8.166;2023-04-15T11:55:39;2.70;;;1.60;;
14100;SDS011;7127;49.372;8.166;2023-04-15T11:58:07;1.53;;;1.27;;
14100;SDS011;7127;49.372;8.166;2023-04-15T12:00:35;1.83;;;1.30;;
14100;SDS011;7127;49.372;8.166;2023-04-15T12:03:16;1.43;;;1.10;;
14100;SDS011;7127;49.372;8.166;2023-04-15T12:06:04;2.03;;;1.20;;
14100;SDS011;7127;49.372;8.166;2023-04-15T12:08:51;1.50;;;1.07;;
14100;SDS011;7127;49.372;8.166;2023-04-15T12:11:36;2.10;;;1.53;;
14100;SDS011;7127;49.372;8.166;2023-04-15T12:14:11;3.10;;;1.50;;
14100;SDS011;7127;49.372;8.166;2023-04-15T12:16:41;2.20;;;1.53;;
14100;SDS011;7127;49.372;8.166;2023-04-15T12:19:10;2.33;;;1.30;;
14100;SDS011;7127;49.372;8.166;2023-04-15T12:21:39;2.13;;;1.33;;
14100;SDS011;7127;49.372;8.166;2023-04-15T12:24:09;2.63;;;1.90;;
14100;SDS011;7127;49.372;8.166;2023-04-15T12:26:42;3.77;;;1.77;;
14100;SDS011;7127;49.372;8.166;2023-04-15T12:29:10;3.43;;;1.70;;
14100;SDS011;7127;49.372;8.166;2023-04-15T12:31:45;1.90;;;1.63;;
14100;SDS011;7127;49.372;8.166;2023-04-15T12:34:13;1.83;;;1.47;;
14100;SDS011;7127;49.372;8.166;2023-04-15T12:36:40;1.70;;;1.60;;
14100;SDS011;7127;49.372;8.166;2023-04-15T12:39:09;3.33;;;1.90;;
14100;SDS011;7127;49.372;8.166;2023-04-15T12:41:36;1.60;;;1.33;;
14100;SDS011;7127;49.372;8.166;2023-04-15T12:44:03;2.20;;;1.60;;
14100;SDS011;7127;49.372;8.166;2023-04-15T12:46:29;1.70;;;1.60;;
14100;SDS011;7127;49.372;8.166;2023-04-15T12:48:56;1.50;;;1.40;;
14100;SDS011;7127;49.372;8.166;2023-04-15T12:51:23;2.70;;;1.50;;
14100;SDS011;7127;49.372;8.166;2023-04-15T12:53:50;3.10;;;1.60;;
14100;SDS011;7127;49.372;8.166;2023-04-15T12:56:18;2.33;;;1.60;;
14100;SDS011;7127;49.372;8.166;2023-04-15T12:58:45;1.87;;;1.37;;
14100;SDS011;7127;49.372;8.166;2023-04-15T13:01:12;1.97;;;1.50;;
14100;SDS011;7127;49.372;8.166;2023-04-15T13:03:39;1.50;;;1.20;;
14100;SDS011;7127;49.372;8.166;2023-04-15T13:06:06;1.47;;;1.10;;
14100;SDS011;7127;49.372;8.166;2023-04-15T13:08:32;1.00;;;0.97;;
14100;SDS011;7127;49.372;8.166;2023-04-15T13:10:59;1.00;;;0.93;;
14100;SDS011;7127;49.372;8.166;2023-04-15T13:13:27;1.50;;;0.93;;
14100;SDS011;7127;49.372;8.166;2023-04-15T13:15:56;1.90;;;1.30;;
14100;SDS011;7127;49.372;8.166;2023-04-15T13:18:22;1.93;;;1.10;;
14100;SDS011;7127;49.372;8.166;2023-04-15T13:20:50;1.10;;;0.90;;
14100;SDS011;7127;49.372;8.166;2023-04-15T13:23:17;0.73;;;0.73;;
14100;SDS011;7127;49.372;8.166;2023-04-15T13:25:43;4.00;;;0.90;;
14100;SDS011;7127;49.372;8.166;2023-04-15T13:28:11;1.13;;;0.70;;
14100;SDS011;7127;49.372;8.166;2023-04-15T13:30:39;2.20;;;1.00;;
14100;SDS011;7127;49.372;8.166;2023-04-15T13:33:06;1.20;;;0.73;;
14100;SDS011;7127;49.372;8.166;2023-04-15T13:35:33;1.30;;;0.80;;
14100;SDS011;7127;49.372;8.166;2023-04-15T13:38:00;0.53;;;0.53;;
14100;SDS011;7127;49.372;8.166;2023-04-15T13:40:27;1.53;;;0.90;;
14100;SDS011;7127;49.372;8.166;2023-04-15T13:42:54;0.77;;;0.77;;
14100;SDS011;7127;49.372;8.166;2023-04-15T13:45:22;1.23;;;0.60;;
14100;SDS011;7127;49.372;8.166;2023-04-15T13:47:50;1.07;;;0.60;;
14100;SDS011;7127;49.372;8.166;2023-04-15T13:50:18;1.07;;;0.80;;
14100;SDS011;7127;49.372;8.166;2023-04-15T13:52:45;2.10;;;1.00;;
14100;SDS011;7127;49.372;8.166;2023-04-15T13:55:12;1.07;;;0.70;;
14100;SDS011;7127;49.372;8.166;2023-04-15T13:57:39;0.77;;;0.70;;
14100;SDS011;7127;49.372;8.166;2023-04-15T14:00:07;0.60;;;0.40;;
14100;SDS011;7127;49.372;8.166;2023-04-15T14:02:34;0.83;;;0.53;;
14100;SDS011;7127;49.372;8.166;2023-04-15T14:05:02;0.80;;;0.77;;
14100;SDS011;7127;49.372;8.166;2023-04-15T14:07:29;0.93;;;0.80;;
14100;SDS011;7127;49.372;8.166;2023-04-15T14:09:56;0.40;;;0.40;;
14100;SDS011;7127;49.372;8.166;2023-04-15T14:12:23;1.47;;;0.47;;
14100;SDS011;7127;49.372;8.166;2023-04-15T14:14:50;0.30;;;0.30;;
14100;SDS011;7127;49.372;8.166;2023-04-15T14:17:17;0.87;;;0.53;;
14100;SDS011;7127;49.372;8.166;2023-04-15T14:19:43;0.63;;;0.50;;
14100;SDS011;7127;49.372;8.166;2023-04-15T14:22:12;0.93;;;0.50;;
14100;SDS011;7127;49.372;8.166;2023-04-15T14:24:38;1.03;;;0.40;;
14100;SDS011;7127;49.372;8.166;2023-04-15T14:27:05;0.33;;;0.33;;
14100;SDS011;7127;49.372;8.166;2023-04-15T14:29:35;0.70;;;0.10;;
14100;SDS011;7127;49.372;8.166;2023-04-15T14:32:02;0.20;;;0.20;;
14100;SDS011;7127;49.372;8.166;2023-04-15T14:34:29;0.63;;;0.40;;
14100;SDS011;7127;49.372;8.166;2023-04-15T14:36:55;0.27;;;0.20;;
14100;SDS011;7127;49.372;8.166;2023-04-15T14:39:24;0.20;;;0.20;;
14100;SDS011;7127;49.372;8.166;2023-04-15T14:41:51;0.30;;;0.30;;
14100;SDS011;7127;49.372;8.166;2023-04-15T14:44:18;0.10;;;0.10;;
14100;SDS011;7127;49.372;8.166;2023-04-15T14:46:45;0.40;;;0.30;;
14100;SDS011;7127;49.372;8.166;2023-04-15T14:49:12;0.30;;;0.30;;
14100;SDS011;7127;49.372;8.166;2023-04-15T14:51:39;0.60;;;0.40;;
14100;SDS011;7127;49.372;8.166;2023-04-15T14:54:06;0.83;;;0.37;;
14100;SDS011;7127;49.372;8.166;2023-04-15T14:56:34;0.30;;;0.30;;
14100;SDS011;7127;49.372;8.166;2023-04-15T14:59:01;1.93;;;0.70;;
14100;SDS011;7127;49.372;8.166;2023-04-15T15:01:27;0.30;;;0.30;;
14100;SDS011;7127;49.372;8.166;2023-04-15T15:03:55;0.40;;;0.40;;
14100;SDS011;7127;49.372;8.166;2023-04-15T15:06:22;2.40;;;0.30;;
14100;SDS011;7127;49.372;8.166;2023-04-15T15:08:48;0.60;;;0.40;;
14100;SDS011;7127;49.372;8.166;2023-04-15T15:11:15;0.50;;;0.50;;